Time;durP1;ratioP1;P1;durP2;ratioP2;P2;SDS_P1;SDS_P2;PMS_P1;PMS_P2;Temp;Humidity;BMP_temperature;BMP_pressure;BME280_temperature;BME280_humidity;BME280_pressure;Samples;Min_cycle;Max_cycle;Signal;HPM_P1;HPM_P2
2023/05/27 00:01:42;;;;;;;9.97;2.50;;;13.30;1.00;;;;;;5073349;28;20413;-73
2023/05/27 00:04:08;;;;;;;13.23;3.40;;;13.30;1.00;;;;;;5071229;28;20773;-73
2023/05/27 00:06:41;;;;;;;7.37;2.37;;;13.20;1.00;;;;;;5069757;28;20515;-73
2023/05/27 00:09:07;;;;;;;12.37;2.87;;;13.10;1.00;;;;;;5055763;28;20179;-73
2023/05/27 00:11:33;;;;;;;12.83;3.03;;;13.10;1.00;;;;;;5072250;28;20436;-72
2023/05/27 00:13:58;;;;;;;12.10;3.10;;;13.10;1.00;;;;;;5072190;28;20182;-73
2023/05/27 00:16:29;;;;;;;10.07;2.50;;;13.00;1.00;;;;;;5067698;28;20231;-78
2023/05/27 00:19:11;;;;;;;13.93;2.77;;;13.00;1.00;;;;;;5073238;28;20211;-78
2023/05/27 00:22:10;;;;;;;11.13;2.70;;;13.00;1.00;;;;;;5072492;28;20413;-78
2023/05/27 00:24:41;;;;;;;9.60;2.50;;;13.00;1.00;;;;;;5065094;28;20404;-78
2023/05/27 00:27:17;;;;;;;4.20;2.13;;;13.00;1.00;;;;;;5063142;28;20985;-78
2023/05/27 00:29:42;;;;;;;11.30;2.87;;;12.90;1.00;;;;;;5073037;28;20910;-78
2023/05/27 00:32:11;;;;;;;7.90;3.20;;;12.90;1.00;;;;;;5073773;28;20423;-78
2023/05/27 00:34:47;;;;;;;11.20;2.90;;;12.90;1.00;;;;;;5071582;28;20179;-78
2023/05/27 00:37:23;;;;;;;13.63;3.83;;;12.80;1.00;;;;;;5073617;28;20371;-78
2023/05/27 00:40:08;;;;;;;7.27;2.20;;;12.80;1.00;;;;;;5065680;28;20946;-78
2023/05/27 00:42:34;;;;;;;9.23;2.87;;;12.70;1.00;;;;;;5072921;28;20439;-78
2023/05/27 00:45:08;;;;;;;14.30;3.60;;;12.70;1.00;;;;;;5073290;28;20433;-78
2023/05/27 00:47:34;;;;;;;6.70;2.63;;;12.70;1.00;;;;;;5072588;28;20166;-73
2023/05/27 00:50:03;;;;;;;10.23;3.13;;;12.60;1.00;;;;;;5072257;28;20418;-73
2023/05/27 00:52:29;;;;;;;17.33;4.00;;;12.60;1.00;;;;;;5054770;28;20437;-73
2023/05/27 00:54:56;;;;;;;11.23;2.80;;;12.70;1.00;;;;;;5053559;28;20451;-73
2023/05/27 00:57:23;;;;;;;9.73;2.50;;;12.60;1.00;;;;;;5059950;28;20424;-73
2023/05/27 00:59:48;;;;;;;17.43;3.50;;;12.60;1.00;;;;;;5072453;28;20871;-73
2023/05/27 01:02:17;;;;;;;13.77;3.23;;;12.60;1.00;;;;;;5057059;28;20436;-78
2023/05/27 01:04:46;;;;;;;11.70;3.43;;;12.50;1.00;;;;;;5051853;28;20202;-78
2023/05/27 01:07:43;;;;;;;8.37;2.80;;;12.50;1.00;;;;;;5055224;28;20516;-78
2023/05/27 01:10:58;;;;;;;17.27;3.63;;;12.50;1.00;;;;;;4962777;28;20433;-78
2023/05/27 01:13:46;;;;;;;8.10;2.60;;;12.50;1.00;;;;;;4972596;28;20468;-79
2023/05/27 01:16:17;;;;;;;18.10;3.43;;;12.40;1.00;;;;;;4956940;28;20532;-73
2023/05/27 01:18:44;;;;;;;11.60;2.83;;;12.30;1.00;;;;;;4967788;28;20407;-73
2023/05/27 01:21:14;;;;;;;16.83;3.90;;;12.30;1.00;;;;;;4969162;28;20443;-73
2023/05/27 01:23:44;;;;;;;8.87;2.73;;;12.30;1.00;;;;;;4967786;28;20444;-73
2023/05/27 01:26:10;;;;;;;7.80;3.07;;;12.30;1.00;;;;;;4971582;28;20413;-73
2023/05/27 01:28:36;;;;;;;13.60;4.10;;;12.20;1.00;;;;;;4974572;28;20422;-73
2023/05/27 01:31:42;;;;;;;19.90;3.53;;;12.30;1.00;;;;;;4971540;28;20190;-78
2023/05/27 01:34:12;;;;;;;13.83;2.80;;;12.20;1.00;;;;;;4976295;28;20909;-78
2023/05/27 01:36:51;;;;;;;10.30;3.17;;;12.20;1.00;;;;;;4970007;28;20408;-79
2023/05/27 01:39:24;;;;;;;13.53;3.13;;;12.10;1.00;;;;;;4976077;28;20439;-79
2023/05/27 01:41:54;;;;;;;13.53;3.33;;;12.10;1.00;;;;;;4975510;28;20769;-78
2023/05/27 01:44:23;;;;;;;13.30;3.70;;;12.10;1.00;;;;;;4975816;28;20508;-78
2023/05/27 01:46:58;;;;;;;10.27;2.97;;;12.00;1.00;;;;;;5008462;28;20407;-78
2023/05/27 01:49:46;;;;;;;13.00;3.53;;;12.00;1.00;;;;;;5075759;28;20835;-78
2023/05/27 01:52:17;;;;;;;13.00;3.90;;;12.00;1.00;;;;;;5076592;28;20469;-78
2023/05/27 01:55:17;;;;;;;13.33;3.37;;;12.10;1.00;;;;;;5076085;28;20411;-78
2023/05/27 01:57:47;;;;;;;5.63;2.40;;;11.90;1.00;;;;;;5066609;28;20420;-78
2023/05/27 02:00:17;;;;;;;13.50;3.17;;;11.90;1.00;;;;;;5075825;28;20890;-78
2023/05/27 02:02:43;;;;;;;16.80;3.30;;;11.90;1.00;;;;;;5074436;28;20445;-73
2023/05/27 02:05:08;;;;;;;7.20;3.43;;;11.90;1.00;;;;;;5076137;28;20502;-73
2023/05/27 02:07:34;;;;;;;16.80;3.27;;;11.90;1.00;;;;;;5070451;28;20175;-73
2023/05/27 02:10:00;;;;;;;8.43;2.90;;;11.80;1.00;;;;;;5076052;28;20295;-73
2023/05/27 02:12:29;;;;;;;24.10;2.93;;;11.70;1.00;;;;;;5076206;28;20425;-73
2023/05/27 02:14:54;;;;;;;10.87;3.20;;;11.70;1.00;;;;;;5074197;28;20519;-73
2023/05/27 02:17:20;;;;;;;12.07;3.20;;;11.60;1.00;;;;;;5070782;28;20441;-73
2023/05/27 02:19:46;;;;;;;24.30;3.53;;;11.60;1.00;;;;;;5074645;28;20186;-73
2023/05/27 02:22:12;;;;;;;17.70;3.53;;;11.70;1.00;;;;;;5074793;28;20198;-73
2023/05/27 02:24:38;;;;;;;13.83;3.80;;;11.70;1.00;;;;;;5073225;28;20179;-73
2023/05/27 02:27:05;;;;;;;13.57;3.80;;;11.50;1.00;;;;;;5056049;28;21093;-73
2023/05/27 02:29:31;;;;;;;14.33;3.43;;;11.50;1.00;;;;;;5074931;28;20175;-73
2023/05/27 02:31:56;;;;;;;14.70;2.83;;;11.50;1.00;;;;;;5072834;28;20399;-73
2023/05/27 02:34:22;;;;;;;16.40;3.40;;;11.50;1.00;;;;;;5075716;28;20190;-73
2023/05/27 02:36:48;;;;;;;15.77;3.40;;;11.60;1.00;;;;;;5066164;28;20172;-74
2023/05/27 02:39:13;;;;;;;18.53;3.90;;;12.30;1.00;;;;;;5075521;28;20179;-73
2023/05/27 02:41:39;;;;;;;16.83;4.00;;;11.60;1.00;;;;;;5069608;28;20229;-73
2023/05/27 02:44:05;;;;;;;8.47;3.20;;;11.40;1.00;;;;;;5073253;28;20589;-73
2023/05/27 02:46:52;;;;;;;10.20;3.57;;;11.20;1.00;;;;;;5075145;28;20176;-78
2023/05/27 02:49:23;;;;;;;19.50;3.77;;;11.20;1.00;;;;;;5075823;28;20365;-80
2023/05/27 02:51:53;;;;;;;12.13;3.60;;;11.30;1.00;;;;;;5075182;28;20429;-78
2023/05/27 02:54:23;;;;;;;11.90;3.57;;;11.10;1.00;;;;;;5066508;28;20456;-78
2023/05/27 02:57:22;;;;;;;16.73;3.87;;;11.10;1.00;;;;;;5062831;28;20462;-78
2023/05/27 02:59:53;;;;;;;16.70;3.40;;;11.10;1.00;;;;;;5064806;28;20444;-78
2023/05/27 03:02:18;;;;;;;18.53;4.20;;;11.00;1.00;;;;;;5074465;28;20441;-73
2023/05/27 03:04:44;;;;;;;12.13;3.60;;;11.10;1.00;;;;;;5074789;28;20417;-73
2023/05/27 03:07:10;;;;;;;13.70;4.27;;;11.00;1.00;;;;;;5070529;28;20521;-73
2023/05/27 03:09:35;;;;;;;11.07;3.50;;;11.00;1.00;;;;;;5064079;28;20167;-73
2023/05/27 03:12:05;;;;;;;10.67;3.73;;;11.00;1.00;;;;;;5074283;28;20441;-82
2023/05/27 03:14:31;;;;;;;10.33;3.60;;;11.00;1.00;;;;;;5073271;28;20586;-75
2023/05/27 03:16:57;;;;;;;10.30;4.07;;;11.00;1.00;;;;;;5067340;28;20404;-75
2023/05/27 03:19:29;;;;;;;16.27;4.60;;;10.90;1.00;;;;;;5073092;28;20914;-77
2023/05/27 03:21:54;;;;;;;11.10;4.20;;;11.00;1.00;;;;;;5065004;28;20175;-75
2023/05/27 03:24:20;;;;;;;16.27;3.60;;;11.00;1.00;;;;;;5070644;28;20434;-74
2023/05/27 03:26:53;;;;;;;28.17;4.30;;;11.00;1.00;;;;;;5050852;28;20643;-75
2023/05/27 03:29:23;;;;;;;10.70;4.03;;;11.00;1.00;;;;;;5074860;28;20532;-74
2023/05/27 03:31:53;;;;;;;14.50;4.10;;;10.90;1.00;;;;;;5074851;28;20472;-75
2023/05/27 03:34:23;;;;;;;11.73;3.43;;;10.90;1.00;;;;;;5074795;28;20415;-75
2023/05/27 03:36:53;;;;;;;11.07;3.73;;;10.80;1.00;;;;;;5073551;28;20442;-76
2023/05/27 03:39:23;;;;;;;9.67;3.70;;;11.00;1.00;;;;;;5073240;28;20474;-76
2023/05/27 03:41:53;;;;;;;11.77;3.93;;;10.80;1.00;;;;;;5072057;28;20881;-76
2023/05/27 03:44:23;;;;;;;9.60;3.40;;;11.00;1.00;;;;;;5074874;28;20875;-78
2023/05/27 03:46:53;;;;;;;15.40;4.13;;;10.90;1.00;;;;;;5074148;28;20928;-73
2023/05/27 03:49:19;;;;;;;21.60;4.83;;;10.90;1.00;;;;;;5072160;28;20478;-72
2023/05/27 03:51:44;;;;;;;21.33;5.93;;;10.90;1.00;;;;;;5072809;28;20481;-72
2023/05/27 03:54:10;;;;;;;19.60;3.70;;;10.90;1.00;;;;;;5072727;28;20603;-73
2023/05/27 03:56:36;;;;;;;10.90;4.00;;;11.00;1.00;;;;;;5067672;28;20693;-72
2023/05/27 03:59:02;;;;;;;14.77;4.30;;;11.00;1.00;;;;;;5055366;28;20731;-81
2023/05/27 04:01:58;;;;;;;12.13;3.93;;;11.00;1.00;;;;;;5055010;28;20269;-80
2023/05/27 04:04:47;;;;;;;11.97;4.77;;;11.00;1.00;;;;;;5065527;28;20669;-80
2023/05/27 04:07:40;;;;;;;22.70;4.13;;;11.00;1.00;;;;;;5073521;28;20836;-80
2023/05/27 04:10:06;;;;;;;20.40;3.70;;;11.00;1.00;;;;;;5069987;28;20434;-80
2023/05/27 04:12:35;;;;;;;9.37;3.93;;;11.00;1.00;;;;;;5073915;28;20376;-80
2023/05/27 04:15:06;;;;;;;15.70;3.60;;;11.10;1.00;;;;;;5070915;28;20403;-80
2023/05/27 04:21:22;;;;;;;16.43;4.20;;;11.10;1.00;;;;;;5063212;28;20738;-80
2023/05/27 04:23:59;;;;;;;16.17;4.40;;;11.20;1.00;;;;;;5072828;28;20940;-80
2023/05/27 04:26:35;;;;;;;12.60;4.10;;;11.20;1.00;;;;;;5063147;28;20814;-80
2023/05/27 04:29:09;;;;;;;20.40;4.23;;;11.30;1.00;;;;;;5073805;28;20404;-81
2023/05/27 04:31:36;;;;;;;13.20;3.87;;;11.30;1.00;;;;;;5071798;28;20766;-80
2023/05/27 04:38:15;;;;;;;14.47;3.33;;;11.40;1.00;;;;;;5073851;28;20822;-84
2023/05/27 04:44:52;;;;;;;13.30;4.20;;;11.60;1.00;;;;;;5067592;28;20435;-84
2023/05/27 04:47:23;;;;;;;17.57;3.63;;;11.60;1.00;;;;;;5051181;28;20435;-82
2023/05/27 04:49:49;;;;;;;9.50;4.00;;;11.70;1.00;;;;;;5073112;28;20424;-73
2023/05/27 04:52:23;;;;;;;12.03;3.40;;;11.70;1.00;;;;;;5068830;28;20790;-73
2023/05/27 04:55:06;;;;;;;12.20;4.10;;;11.80;1.00;;;;;;5054905;28;20678;-72
2023/05/27 04:57:32;;;;;;;16.70;4.10;;;11.80;1.00;;;;;;5060284;28;20570;-73
2023/05/27 05:00:35;;;;;;;11.60;3.97;;;12.00;1.00;;;;;;5054808;28;20833;-72
2023/05/27 05:03:20;;;;;;;14.10;4.90;;;12.00;1.00;;;;;;5059076;28;20448;-72
2023/05/27 05:05:59;;;;;;;13.43;3.97;;;12.10;1.00;;;;;;5058827;28;20397;-72
2023/05/27 05:09:11;;;;;;;8.43;3.63;;;12.10;1.00;;;;;;5068897;28;20452;-73
2023/05/27 05:11:37;;;;;;;9.00;3.43;;;12.20;1.00;;;;;;5073506;28;20384;-74
2023/05/27 05:14:22;;;;;;;12.30;4.10;;;12.30;1.00;;;;;;5054660;28;21109;-74
2023/05/27 05:16:48;;;;;;;7.30;3.60;;;12.30;1.00;;;;;;5064113;28;20404;-74
2023/05/27 05:19:17;;;;;;;10.93;4.17;;;12.40;1.00;;;;;;5066754;28;20405;-75
2023/05/27 05:21:43;;;;;;;12.63;4.70;;;12.50;1.00;;;;;;5072759;28;20187;-74
2023/05/27 05:24:23;;;;;;;11.83;4.37;;;12.50;1.00;;;;;;5072429;28;20559;-75
2023/05/27 05:27:23;;;;;;;8.50;4.03;;;12.60;1.00;;;;;;5061015;28;20167;-74
2023/05/27 05:30:05;;;;;;;13.60;4.10;;;12.60;1.00;;;;;;5074561;28;20415;-74
2023/05/27 05:32:36;;;;;;;16.57;4.30;;;12.70;1.00;;;;;;5072226;28;20902;-75
2023/05/27 05:35:03;;;;;;;12.77;3.80;;;12.80;1.00;;;;;;5073364;28;20387;-72
2023/05/27 05:37:28;;;;;;;14.07;4.13;;;12.90;1.00;;;;;;5072242;28;20452;-72
2023/05/27 05:39:55;;;;;;;15.00;4.40;;;13.00;1.00;;;;;;5070481;28;20882;-72
2023/05/27 05:42:21;;;;;;;17.07;5.13;;;13.10;1.00;;;;;;5063187;28;20206;-72
2023/05/27 05:44:47;;;;;;;11.00;3.80;;;13.30;1.00;;;;;;5069289;28;20407;-72
2023/05/27 05:47:13;;;;;;;10.67;3.50;;;13.20;1.00;;;;;;5069086;28;20412;-73
2023/05/27 05:49:38;;;;;;;11.73;4.00;;;13.40;1.00;;;;;;5051465;28;20183;-74
2023/05/27 05:52:11;;;;;;;10.57;3.70;;;13.40;1.00;;;;;;5065613;28;20171;-74
2023/05/27 05:54:53;;;;;;;11.13;3.83;;;13.40;1.00;;;;;;5062879;28;20557;-74
2023/05/27 05:58:10;;;;;;;13.27;4.20;;;13.50;1.00;;;;;;5065995;28;20438;-75
2023/05/27 06:00:41;;;;;;;10.07;3.70;;;13.60;1.00;;;;;;5071443;28;20453;-74
2023/05/27 06:03:09;;;;;;;11.90;3.30;;;13.60;1.00;;;;;;5076801;28;20450;-73
2023/05/27 06:05:35;;;;;;;13.43;3.90;;;13.80;1.00;;;;;;5070745;28;20857;-72
2023/05/27 06:08:05;;;;;;;17.60;3.93;;;13.90;1.00;;;;;;5071560;28;20457;-72
2023/05/27 06:10:31;;;;;;;18.47;4.17;;;13.90;1.00;;;;;;5055254;28;20703;-72
2023/05/27 06:12:56;;;;;;;15.40;4.47;;;14.00;1.00;;;;;;5069166;28;20407;-72
2023/05/27 06:15:22;;;;;;;16.10;4.13;;;14.20;1.00;;;;;;5075261;28;20232;-72
2023/05/27 06:17:48;;;;;;;11.83;3.53;;;14.20;1.00;;;;;;5048858;28;20203;-72
2023/05/27 06:20:17;;;;;;;11.47;4.00;;;14.30;1.00;;;;;;5071846;28;20186;-74
2023/05/27 06:22:53;;;;;;;15.90;3.73;;;14.40;1.00;;;;;;5070664;28;20198;-74
2023/05/27 06:25:41;;;;;;;14.47;4.10;;;14.50;1.00;;;;;;5062856;28;20411;-75
2023/05/27 06:28:11;;;;;;;18.93;4.10;;;14.50;1.00;;;;;;5069589;28;20433;-75
2023/05/27 06:30:42;;;;;;;11.60;4.10;;;14.60;1.00;;;;;;5071764;28;20437;-74
2023/05/27 06:33:23;;;;;;;9.10;3.70;;;14.60;1.00;;;;;;5062306;28;20418;-74
2023/05/27 06:35:49;;;;;;;15.37;3.60;;;14.80;1.00;;;;;;5075496;28;20398;-73
2023/05/27 06:38:15;;;;;;;13.97;3.43;;;14.90;1.00;;;;;;5074885;28;20395;-73
2023/05/27 06:40:41;;;;;;;10.23;3.40;;;15.00;1.00;;;;;;5073646;28;20179;-73
2023/05/27 06:43:06;;;;;;;9.50;3.80;;;15.20;1.00;;;;;;5069734;28;20234;-73
2023/05/27 06:45:32;;;;;;;9.83;3.60;;;15.20;1.00;;;;;;5071206;28;20623;-73
2023/05/27 06:47:58;;;;;;;13.37;3.73;;;15.30;1.00;;;;;;5071148;28;20171;-73
2023/05/27 06:50:29;;;;;;;13.77;3.60;;;15.40;1.00;;;;;;5074653;28;20182;-73
2023/05/27 06:52:55;;;;;;;10.07;3.50;;;15.40;1.00;;;;;;5052479;28;20198;-73
2023/05/27 06:55:20;;;;;;;19.90;3.90;;;15.50;1.00;;;;;;5072811;28;20399;-73
2023/05/27 06:57:47;;;;;;;11.73;4.00;;;15.60;1.00;;;;;;5075399;28;20654;-73
2023/05/27 07:00:13;;;;;;;7.50;3.43;;;15.70;1.00;;;;;;5073385;28;20428;-73
2023/05/27 07:02:39;;;;;;;12.10;3.60;;;15.80;1.00;;;;;;5073206;28;20460;-73
2023/05/27 07:05:05;;;;;;;10.83;3.87;;;16.00;1.00;;;;;;5059903;28;20415;-73
2023/05/27 07:07:31;;;;;;;20.57;3.67;;;16.10;1.00;;;;;;5072648;28;20187;-73
2023/05/27 07:09:59;;;;;;;15.63;3.90;;;16.20;1.00;;;;;;5074839;28;20418;-73
2023/05/27 07:12:52;;;;;;;11.20;3.60;;;16.30;1.00;;;;;;5048407;28;20236;-86
2023/05/27 07:15:47;;;;;;;11.27;3.57;;;16.30;1.00;;;;;;5056059;28;20441;-88
2023/05/27 07:18:47;;;;;;;12.40;3.73;;;16.40;1.00;;;;;;5055218;28;20431;-85
2023/05/27 07:27:56;;;;;;;12.40;3.93;;;16.80;1.00;;;;;;5074105;28;21151;-90
2023/05/27 07:30:41;;;;;;;14.70;4.10;;;16.90;1.00;;;;;;5056603;28;20462;-90
2023/05/27 07:33:35;;;;;;;14.93;4.53;;;17.10;1.00;;;;;;5057677;28;20192;-90
2023/05/27 07:39:52;;;;;;;8.47;2.70;;;17.30;1.00;;;;;;5074489;28;20453;-90
2023/05/27 07:42:23;;;;;;;16.30;3.80;;;17.50;1.00;;;;;;5057376;28;20460;-91
2023/05/27 07:51:32;;;;;;;8.60;3.33;;;17.80;1.00;;;;;;5074611;28;20787;-90
2023/05/27 07:53:58;;;;;;;10.63;4.03;;;17.90;1.00;;;;;;5056957;28;20519;-90
2023/05/27 07:56:24;;;;;;;7.67;3.27;;;17.90;1.00;;;;;;5057074;28;20205;-90
2023/05/27 07:59:10;;;;;;;29.00;3.73;;;18.00;1.00;;;;;;5074785;28;20436;-90
2023/05/27 08:04:59;;;;;;;16.23;4.83;;;18.20;1.00;;;;;;5055314;28;20428;-90
2023/05/27 08:10:53;;;;;;;9.27;2.97;;;18.50;1.00;;;;;;5070976;28;20427;-90
2023/05/27 08:13:52;;;;;;;12.93;3.87;;;18.60;1.00;;;;;;5056493;28;21006;-90
2023/05/27 08:17:10;;;;;;;8.13;3.20;;;18.70;1.00;;;;;;5041150;28;20502;-91
2023/05/27 08:23:18;;;;;;;10.27;3.67;;;18.90;1.00;;;;;;5056728;28;20459;-91
2023/05/27 08:26:22;;;;;;;10.10;3.20;;;19.00;1.00;;;;;;5059650;28;20508;-88
2023/05/27 08:29:25;;;;;;;8.70;3.37;;;19.10;1.00;;;;;;5054977;28;20437;-88
2023/05/27 08:32:22;;;;;;;7.90;3.10;;;19.20;1.00;;;;;;5055665;28;20521;-90
2023/05/27 08:34:48;;;;;;;12.30;3.70;;;19.30;1.00;;;;;;5063168;28;20425;-88
2023/05/27 08:44:23;;;;;;;8.30;3.50;;;19.60;1.00;;;;;;5071153;28;20481;-89
2023/05/27 08:57:19;;;;;;;14.10;4.53;;;20.00;1.00;;;;;;5073677;28;20556;-88
2023/05/27 09:00:11;;;;;;;10.10;3.27;;;20.00;1.00;;;;;;5056347;28;20421;-88
2023/05/27 09:06:01;;;;;;;12.43;3.10;;;20.30;1.00;;;;;;5066875;28;20436;-85
2023/05/27 09:12:08;;;;;;;18.03;3.77;;;20.50;1.00;;;;;;5072563;28;20511;-87
2023/05/27 09:15:22;;;;;;;14.27;4.47;;;20.70;1.00;;;;;;5073662;28;20426;-87
2023/05/27 09:18:27;;;;;;;12.73;3.40;;;20.90;1.00;;;;;;5063874;28;20553;-87
2023/05/27 09:20:55;;;;;;;7.23;3.00;;;21.00;1.00;;;;;;5055157;28;20436;-88
2023/05/27 09:23:39;;;;;;;9.97;4.17;;;21.10;1.00;;;;;;5060137;28;20508;-87
2023/05/27 09:26:17;;;;;;;9.20;3.33;;;21.30;1.00;;;;;;5065378;28;20594;-87
2023/05/27 09:28:47;;;;;;;9.23;3.07;;;21.40;1.00;;;;;;5073460;28;20408;-87
2023/05/27 09:31:13;;;;;;;18.60;3.20;;;21.50;1.00;;;;;;5073357;28;20541;-88
2023/05/27 09:33:47;;;;;;;10.80;2.87;;;21.60;1.00;;;;;;5055754;28;20570;-87
2023/05/27 09:36:13;;;;;;;9.03;3.00;;;21.70;1.00;;;;;;5077278;28;20179;-87
2023/05/27 09:38:38;;;;;;;16.27;3.20;;;21.90;1.00;;;;;;5076258;28;20443;-86
2023/05/27 09:41:27;;;;;;;17.73;4.00;;;22.00;1.00;;;;;;5044151;28;20838;-86
2023/05/27 09:44:17;;;;;;;13.80;3.00;;;22.10;1.00;;;;;;5055139;28;20554;-87
2023/05/27 09:46:54;;;;;;;10.80;3.60;;;22.20;1.00;;;;;;5058842;28;20428;-87
2023/05/27 09:52:48;;;;;;;14.40;4.27;;;22.50;1.00;;;;;;5071024;28;20428;-88
2023/05/27 09:55:17;;;;;;;12.10;4.80;;;22.50;1.00;;;;;;5055260;28;20501;-88
2023/05/27 09:57:44;;;;;;;16.00;3.70;;;22.70;1.00;;;;;;5045377;28;20426;-88
2023/05/27 10:00:12;;;;;;;11.30;2.90;;;22.80;1.00;;;;;;5056613;28;20428;-87
2023/05/27 10:02:59;;;;;;;15.40;3.63;;;22.80;1.00;;;;;;5072123;28;20824;-87
2023/05/27 10:05:27;;;;;;;11.63;3.93;;;23.00;1.00;;;;;;5056144;28;20839;-86
2023/05/27 10:07:53;;;;;;;10.27;3.93;;;23.00;1.00;;;;;;5069414;28;20434;-85
2023/05/27 10:10:20;;;;;;;12.20;3.80;;;23.10;1.00;;;;;;5074949;28;20416;-84
2023/05/27 10:12:49;;;;;;;15.40;3.20;;;23.20;1.00;;;;;;5074808;28;20186;-85
2023/05/27 10:15:22;;;;;;;24.67;6.83;;;23.20;1.00;;;;;;5075863;28;20415;-85
2023/05/27 10:17:55;;;;;;;13.87;4.03;;;23.30;1.00;;;;;;5063840;28;20428;-85
2023/05/27 10:20:42;;;;;;;12.70;3.80;;;23.30;1.00;;;;;;5069967;28;20998;-84
2023/05/27 10:23:30;;;;;;;12.30;3.40;;;23.40;1.00;;;;;;5045709;28;20457;-84
2023/05/27 10:26:17;;;;;;;10.43;3.30;;;23.40;1.00;;;;;;5041453;28;20856;-84
2023/05/27 10:29:14;;;;;;;11.67;3.20;;;23.60;1.00;;;;;;5069427;28;20422;-84
2023/05/27 10:32:29;;;;;;;15.63;3.47;;;23.60;1.00;;;;;;5055585;28;20435;-84
2023/05/27 10:35:25;;;;;;;10.80;3.60;;;23.70;1.00;;;;;;5068800;28;20453;-84
2023/05/27 10:38:41;;;;;;;15.67;3.23;;;23.80;1.00;;;;;;5056404;28;20397;-84
2023/05/27 10:41:23;;;;;;;14.33;3.87;;;23.90;1.00;;;;;;5039228;28;20431;-84
2023/05/27 10:44:29;;;;;;;16.80;3.60;;;24.10;1.00;;;;;;5045355;28;20543;-84
2023/05/27 10:47:29;;;;;;;9.97;3.63;;;24.20;1.00;;;;;;5075443;28;20434;-84
2023/05/27 10:53:28;;;;;;;11.73;3.20;;;24.40;1.00;;;;;;5053704;28;20750;-87
2023/05/27 10:55:59;;;;;;;23.27;4.20;;;24.50;1.00;;;;;;5041888;28;20506;-87
2023/05/27 11:09:05;;;;;;;9.07;3.43;;;24.50;1.00;;;;;;5054697;28;20424;-84
2023/05/27 11:15:06;;;;;;;13.20;3.33;;;24.70;1.00;;;;;;5041687;28;20455;-85
2023/05/27 11:17:33;;;;;;;12.33;2.97;;;24.70;1.00;;;;;;5051771;28;20421;-84
2023/05/27 11:20:06;;;;;;;8.47;3.50;;;24.80;1.00;;;;;;5039197;28;20562;-84
2023/05/27 11:22:53;;;;;;;11.80;3.27;;;24.80;1.00;;;;;;5036299;28;20819;-84
2023/05/27 11:25:56;;;;;;;9.43;3.50;;;24.80;1.00;;;;;;5036379;28;20433;-83
2023/05/27 11:28:29;;;;;;;8.20;3.80;;;24.90;1.00;;;;;;4956424;28;20814;-84
2023/05/27 11:34:04;;;;;;;6.07;2.60;;;25.20;1.00;;;;;;4902918;29;20424;-84
2023/05/27 11:39:52;;;;;;;8.50;3.27;;;25.30;1.00;;;;;;4910799;29;20406;-89
2023/05/27 11:55:46;;;;;;;8.63;3.40;;;25.30;1.00;;;;;;4916652;29;20454;-87
2023/05/27 11:59:05;;;;;;;8.83;3.23;;;25.40;1.00;;;;;;4906872;29;20442;-87
2023/05/27 12:04:52;;;;;;;11.13;3.57;;;25.60;1.00;;;;;;4955026;29;20471;-88
2023/05/27 12:07:53;;;;;;;9.17;3.00;;;25.50;1.00;;;;;;4957742;28;20844;-85
2023/05/27 12:10:29;;;;;;;9.17;2.70;;;25.60;1.00;;;;;;4976848;28;20185;-85
2023/05/27 12:13:29;;;;;;;9.70;3.03;;;25.70;1.00;;;;;;5032968;28;20431;-84
2023/05/27 12:16:05;;;;;;;11.97;3.23;;;25.80;1.00;;;;;;5066084;28;20433;-84
2023/05/27 12:18:59;;;;;;;6.83;2.93;;;25.90;1.00;;;;;;5036322;28;20413;-84
2023/05/27 12:21:37;;;;;;;6.30;3.23;;;26.10;1.00;;;;;;5037364;28;20444;-84
2023/05/27 12:27:31;;;;;;;13.73;3.53;;;26.20;1.00;;;;;;5046630;28;20412;-87
2023/05/27 12:33:19;;;;;;;7.37;3.23;;;26.30;1.00;;;;;;5063382;28;20268;-88
2023/05/27 12:45:53;;;;;;;7.13;3.57;;;26.40;1.00;;;;;;5053315;28;20950;-87
2023/05/27 12:51:42;;;;;;;7.83;3.20;;;26.50;1.00;;;;;;5046005;28;20422;-86
2023/05/27 12:57:41;;;;;;;10.83;3.50;;;26.70;1.00;;;;;;5046524;28;20492;-86
2023/05/27 13:03:29;;;;;;;8.43;3.10;;;26.80;1.00;;;;;;5052908;28;20510;-87
2023/05/27 13:09:41;;;;;;;5.70;3.17;;;27.00;1.00;;;;;;5052058;28;20198;-85
2023/05/27 13:12:41;;;;;;;6.70;3.37;;;27.00;1.00;;;;;;5039298;28;20437;-84
2023/05/27 13:15:08;;;;;;;10.30;2.80;;;27.10;1.00;;;;;;5059854;28;20467;-84
2023/05/27 13:17:36;;;;;;;12.30;3.87;;;27.10;1.00;;;;;;5062356;28;20454;-84
2023/05/27 13:20:06;;;;;;;8.97;3.10;;;27.30;1.00;;;;;;5064960;28;20452;-84
2023/05/27 13:22:31;;;;;;;5.77;2.73;;;27.30;1.00;;;;;;5060281;28;20495;-84
2023/05/27 13:25:01;;;;;;;7.87;3.40;;;27.40;1.00;;;;;;5056630;28;20928;-84
2023/05/27 13:27:30;;;;;;;10.53;3.40;;;27.40;1.00;;;;;;5037534;28;20189;-84
2023/05/27 13:30:00;;;;;;;11.47;3.37;;;27.40;1.00;;;;;;5054345;28;20459;-84
2023/05/27 13:32:36;;;;;;;7.30;2.93;;;27.40;1.00;;;;;;5057685;28;21057;-88
2023/05/27 13:35:05;;;;;;;6.87;3.00;;;27.40;1.00;;;;;;5045997;28;20436;-84
2023/05/27 13:37:41;;;;;;;7.20;3.33;;;27.50;1.00;;;;;;5055340;28;20438;-84
2023/05/27 13:43:35;;;;;;;8.10;2.90;;;27.70;1.00;;;;;;5039964;28;20480;-83
2023/05/27 13:46:23;;;;;;;15.27;4.63;;;27.80;1.00;;;;;;5058492;28;20949;-87
2023/05/27 13:49:41;;;;;;;10.47;3.27;;;27.70;1.00;;;;;;5063503;28;20414;-89
2023/05/27 13:52:11;;;;;;;8.70;3.20;;;28.00;1.00;;;;;;5056312;28;20451;-86
2023/05/27 13:54:37;;;;;;;7.37;3.40;;;28.10;1.00;;;;;;5040248;28;20430;-84
2023/05/27 13:57:04;;;;;;;6.20;2.83;;;28.10;1.00;;;;;;5037808;28;22415;-84
2023/05/27 14:03:23;;;;;;;6.67;2.93;;;28.20;1.00;;;;;;5043727;28;20555;-85
2023/05/27 14:05:59;;;;;;;12.33;3.30;;;28.30;1.00;;;;;;5049274;28;20437;-84
2023/05/27 14:08:29;;;;;;;8.33;2.60;;;28.40;1.00;;;;;;5061539;28;20426;-84
2023/05/27 14:11:12;;;;;;;10.37;2.97;;;28.50;1.00;;;;;;5053045;28;20493;-86
2023/05/27 14:13:41;;;;;;;8.20;3.20;;;28.50;1.00;;;;;;5038237;28;20954;-82
2023/05/27 14:16:29;;;;;;;9.93;3.43;;;28.50;1.00;;;;;;5037680;28;20434;-84
2023/05/27 14:19:00;;;;;;;9.73;3.20;;;28.30;1.00;;;;;;5052412;28;20408;-83
2023/05/27 14:22:11;;;;;;;4.67;2.13;;;28.30;1.00;;;;;;5041807;28;20421;-83
2023/05/27 14:24:59;;;;;;;9.33;2.93;;;28.20;1.00;;;;;;5050989;28;20789;-81
2023/05/27 14:27:53;;;;;;;6.90;3.00;;;28.30;1.00;;;;;;5043426;28;20507;-82
2023/05/27 14:30:36;;;;;;;7.97;3.20;;;28.40;1.00;;;;;;5038111;28;20481;-81
2023/05/27 14:33:23;;;;;;;6.60;3.00;;;28.50;1.00;;;;;;5054992;28;20457;-84
2023/05/27 14:39:17;;;;;;;6.83;3.00;;;28.60;1.00;;;;;;5047087;28;20441;-84
2023/05/27 14:45:05;;;;;;;6.83;3.03;;;28.60;1.00;;;;;;5035589;28;20763;-80
2023/05/27 14:47:54;;;;;;;6.70;4.30;;;28.70;1.00;;;;;;5069164;28;20818;-81
2023/05/27 14:50:53;;;;;;;14.10;3.57;;;28.70;1.00;;;;;;5050468;28;20426;-83
2023/05/27 14:56:59;;;;;;;4.97;2.73;;;28.80;1.00;;;;;;5037969;28;20513;-88
2023/05/27 15:02:47;;;;;;;7.50;2.70;;;28.30;1.00;;;;;;5031456;28;20873;-87
2023/05/27 15:05:13;;;;;;;8.60;2.83;;;28.50;1.00;;;;;;5017634;28;20512;-87
2023/05/27 15:08:07;;;;;;;12.97;3.40;;;28.90;1.00;;;;;;5014385;28;20575;-85
2023/05/27 15:10:48;;;;;;;14.33;3.00;;;29.90;1.00;;;;;;5013413;28;20273;-81
2023/05/27 15:13:19;;;;;;;9.60;3.20;;;31.90;1.00;;;;;;5022740;28;20477;-87
2023/05/27 15:15:54;;;;;;;5.67;2.93;;;33.50;1.00;;;;;;5047617;28;20988;-82
2023/05/27 15:21:41;;;;;;;7.07;2.80;;;36.80;1.00;;;;;;5033170;28;20418;-81
2023/05/27 15:24:11;;;;;;;3.90;2.30;;;38.30;1.00;;;;;;5025598;28;20455;-82
2023/05/27 15:27:11;;;;;;;5.90;2.43;;;39.50;1.00;;;;;;5040377;28;20571;-82
2023/05/27 15:29:36;;;;;;;5.17;2.40;;;40.70;1.00;;;;;;5049314;28;20407;-82
2023/05/27 15:32:17;;;;;;;5.13;3.10;;;41.50;1.00;;;;;;5027950;28;20454;-82
2023/05/27 15:35:05;;;;;;;8.53;2.83;;;42.40;1.00;;;;;;5036362;28;20188;-82
2023/05/27 15:37:36;;;;;;;6.00;3.20;;;43.00;1.00;;;;;;5032990;28;20461;-82
2023/05/27 15:40:53;;;;;;;10.27;2.73;;;43.30;1.00;;;;;;5035123;28;20391;-82
2023/05/27 15:43:19;;;;;;;5.57;2.60;;;43.60;1.00;;;;;;5016781;28;20455;-81
2023/05/27 15:45:48;;;;;;;6.17;2.60;;;44.40;1.00;;;;;;5032219;28;20448;-82
2023/05/27 15:48:30;;;;;;;3.63;2.20;;;44.40;1.00;;;;;;5047764;28;20215;-82
2023/05/27 15:51:00;;;;;;;6.13;2.13;;;44.80;1.00;;;;;;5016288;28;20455;-82
2023/05/27 15:53:25;;;;;;;3.00;2.10;;;45.40;1.00;;;;;;5023939;28;20984;-82
2023/05/27 15:56:24;;;;;;;4.77;2.30;;;45.70;1.00;;;;;;5022339;28;20427;-82
2023/05/27 15:58:50;;;;;;;3.33;1.83;;;46.20;1.00;;;;;;5030152;28;20188;-82
2023/05/27 16:01:41;;;;;;;2.03;1.80;;;46.50;1.00;;;;;;5018380;28;20428;-82
2023/05/27 16:04:24;;;;;;;2.70;2.00;;;46.40;1.00;;;;;;5026449;28;20254;-80
2023/05/27 16:06:53;;;;;;;4.80;2.30;;;46.50;1.00;;;;;;5041007;28;20402;-82
2023/05/27 16:09:24;;;;;;;3.00;2.10;;;46.80;1.00;;;;;;5022281;28;20411;-82
2023/05/27 16:11:53;;;;;;;4.17;2.40;;;47.10;1.00;;;;;;5034231;28;20472;-82
2023/05/27 16:14:23;;;;;;;5.60;2.13;;;47.00;1.00;;;;;;5039191;28;20433;-81
2023/05/27 16:16:53;;;;;;;4.27;2.40;;;46.90;1.00;;;;;;5053863;28;20878;-81